createdAt,value
2023-02-14T00:00:48.503Z,77.84
2023-02-14T00:03:16.309Z,77.81
2023-02-14T00:05:44.133Z,77.64
2023-02-14T00:08:11.957Z,77.71
2023-02-14T00:10:39.755Z,77.59
2023-02-14T00:13:07.725Z,77.62
2023-02-14T00:15:35.472Z,78.59
2023-02-14T00:18:04.456Z,78.00
2023-02-14T00:20:32.269Z,77.08
2023-02-14T00:23:01.830Z,78.17
2023-02-14T00:25:29.594Z,77.37
2023-02-14T00:27:57.387Z,78.07
2023-02-14T00:30:27.480Z,77.51
2023-02-14T00:32:55.261Z,78.10
2023-02-14T00:35:23.046Z,77.71
2023-02-14T00:37:50.826Z,77.16
2023-02-14T00:40:18.643Z,78.03
2023-02-14T00:42:46.410Z,77.17
2023-02-14T00:45:14.245Z,77.62
2023-02-14T00:47:41.997Z,76.66
2023-02-14T00:50:09.805Z,76.71
2023-02-14T00:52:37.627Z,77.54
2023-02-14T00:55:05.386Z,77.05
2023-02-14T00:57:33.165Z,77.18
2023-02-14T01:00:00.947Z,76.23
2023-02-14T01:02:28.742Z,77.08
2023-02-14T01:04:56.541Z,76.54
2023-02-14T01:07:24.314Z,76.86
2023-02-14T01:09:52.097Z,76.76
2023-02-14T01:12:19.842Z,76.92
2023-02-14T01:14:47.641Z,76.62
2023-02-14T01:17:15.418Z,76.66
2023-02-14T01:19:43.518Z,76.55
2023-02-14T01:22:11.315Z,76.78
2023-02-14T01:24:39.126Z,76.43
2023-02-14T01:27:06.853Z,76.73
2023-02-14T01:29:34.608Z,76.33
2023-02-14T01:32:02.368Z,76.56
2023-02-14T01:34:30.152Z,76.81
2023-02-14T01:36:58.086Z,76.29
2023-02-14T01:39:25.875Z,76.74
2023-02-14T01:41:55.620Z,76.62
2023-02-14T01:44:23.467Z,76.90
2023-02-14T01:46:54.291Z,76.40
2023-02-14T01:49:22.072Z,76.38
2023-02-14T01:51:49.822Z,76.58
2023-02-14T01:54:17.655Z,75.52
2023-02-14T01:56:48.384Z,76.52
2023-02-14T01:59:16.186Z,76.60
2023-02-14T02:01:43.989Z,75.77
2023-02-14T02:04:11.736Z,76.26
2023-02-14T02:06:39.475Z,76.93
2023-02-14T02:09:07.560Z,77.25
2023-02-14T02:11:35.329Z,76.01
2023-02-14T02:14:03.135Z,76.86
2023-02-14T02:16:30.898Z,76.28
2023-02-14T02:18:58.697Z,76.17
2023-02-14T02:21:26.541Z,76.22
2023-02-14T02:23:54.327Z,76.51
2023-02-14T02:26:22.129Z,76.44
2023-02-14T02:28:49.894Z,75.89
2023-02-14T02:31:17.738Z,76.46
2023-02-14T02:33:45.585Z,76.54
2023-02-14T02:36:13.395Z,76.16
2023-02-14T02:38:42.776Z,76.86
2023-02-14T02:41:10.517Z,75.86
2023-02-14T02:43:38.283Z,75.61
2023-02-14T02:46:24.756Z,76.24
2023-02-14T02:48:52.753Z,76.25
2023-02-14T02:51:39.032Z,75.85
2023-02-14T02:54:06.813Z,75.56
2023-02-14T02:56:49.509Z,76.07
2023-02-14T02:59:25.539Z,75.98
2023-02-14T03:01:53.370Z,75.86
2023-02-14T03:04:39.729Z,75.44
2023-02-14T03:07:27.292Z,75.46
2023-02-14T03:09:55.174Z,75.51
2023-02-14T03:12:22.953Z,75.76
2023-02-14T03:14:50.718Z,75.61
2023-02-14T03:17:18.506Z,74.88
2023-02-14T03:20:04.433Z,75.40
2023-02-14T03:22:32.279Z,74.54
2023-02-14T03:25:00.019Z,75.17
2023-02-14T03:27:27.796Z,75.24
2023-02-14T03:29:55.699Z,74.97
2023-02-14T03:32:23.472Z,75.44
2023-02-14T03:34:51.296Z,75.43
2023-02-14T03:37:19.065Z,74.03
2023-02-14T03:39:46.824Z,74.96
2023-02-14T03:42:14.584Z,73.87
2023-02-14T03:44:42.421Z,74.18
2023-02-14T03:47:10.203Z,74.71
2023-02-14T03:49:37.975Z,74.74
2023-02-14T03:52:05.725Z,74.26
2023-02-14T03:54:33.861Z,73.50
2023-02-14T03:57:01.611Z,73.44
2023-02-14T03:59:29.413Z,73.70
2023-02-14T04:01:57.258Z,74.46
2023-02-14T04:04:25.091Z,74.41
2023-02-14T04:06:52.873Z,74.41
2023-02-14T04:09:20.629Z,73.87
2023-02-14T04:11:51.281Z,73.99
2023-02-14T04:14:19.097Z,74.16
2023-02-14T04:17:08.182Z,74.10
2023-02-14T04:19:36.094Z,73.93
2023-02-14T04:22:03.858Z,75.25
2023-02-14T04:24:31.610Z,74.31
2023-02-14T04:27:11.605Z,75.15
2023-02-14T04:29:39.769Z,73.57
2023-02-14T04:32:07.574Z,73.49
2023-02-14T04:34:35.449Z,72.95
2023-02-14T04:37:03.460Z,74.08
2023-02-14T04:39:31.227Z,74.18
2023-02-14T04:41:59.004Z,74.62
2023-02-14T04:44:26.842Z,74.04
2023-02-14T04:46:54.681Z,73.99
2023-02-14T04:49:24.792Z,73.41
2023-02-14T04:51:52.542Z,74.64
2023-02-14T04:54:20.295Z,74.12
2023-02-14T04:56:48.079Z,74.21
2023-02-14T04:59:15.975Z,74.24
2023-02-14T05:01:43.753Z,74.30
2023-02-14T05:04:11.627Z,72.46
2023-02-14T05:06:39.399Z,71.91
2023-02-14T05:09:09.359Z,72.30
2023-02-14T05:11:37.163Z,73.11
2023-02-14T05:14:04.937Z,73.37
2023-02-14T05:16:32.752Z,73.72
2023-02-14T05:19:00.830Z,74.15
2023-02-14T05:21:29.546Z,74.41
2023-02-14T05:23:57.306Z,73.14
2023-02-14T05:26:25.747Z,72.56
2023-02-14T05:28:53.599Z,73.56
2023-02-14T05:31:21.515Z,73.35
2023-02-14T05:33:49.474Z,73.23
2023-02-14T05:36:17.314Z,73.64
2023-02-14T05:38:45.114Z,72.86
2023-02-14T05:41:12.882Z,72.19
2023-02-14T05:43:40.647Z,71.84
2023-02-14T05:46:08.492Z,73.14
2023-02-14T05:48:36.269Z,72.54
2023-02-14T05:51:04.032Z,72.96
2023-02-14T05:53:31.756Z,73.41
2023-02-14T05:55:59.619Z,72.74
2023-02-14T05:58:27.371Z,71.72
2023-02-14T06:00:55.145Z,71.10
2023-02-14T06:03:22.951Z,71.27
2023-02-14T06:05:50.720Z,71.32
2023-02-14T06:08:18.594Z,72.28
2023-02-14T06:10:46.454Z,70.96
2023-02-14T06:13:14.218Z,70.58
2023-02-14T06:15:42.015Z,71.78
2023-02-14T06:18:09.828Z,71.75
2023-02-14T06:20:37.845Z,72.36
2023-02-14T06:23:05.881Z,72.36
2023-02-14T06:25:33.714Z,72.43
2023-02-14T06:28:01.567Z,71.02
2023-02-14T06:30:29.485Z,70.65
2023-02-14T06:32:57.438Z,71.31
2023-02-14T06:35:25.206Z,71.22
2023-02-14T06:37:52.934Z,72.25
2023-02-14T06:40:20.865Z,71.16
2023-02-14T06:42:48.667Z,72.17
2023-02-14T06:45:16.485Z,71.21
2023-02-14T06:47:44.384Z,72.48
2023-02-14T06:50:12.724Z,72.02
2023-02-14T06:52:40.696Z,72.63
2023-02-14T06:55:08.837Z,72.30
2023-02-14T06:57:36.577Z,72.36
2023-02-14T07:00:04.336Z,71.36
2023-02-14T07:02:32.117Z,71.15
2023-02-14T07:04:59.900Z,71.62
2023-02-14T07:07:27.630Z,72.31
2023-02-14T07:09:55.418Z,72.20
2023-02-14T07:12:23.181Z,72.54
2023-02-14T07:14:50.934Z,71.64
2023-02-14T07:17:18.702Z,71.50
2023-02-14T07:19:46.441Z,71.66
2023-02-14T07:22:14.186Z,71.92
2023-02-14T07:24:41.957Z,71.74
2023-02-14T07:27:09.686Z,73.21
2023-02-14T07:29:38.398Z,72.45
2023-02-14T07:32:06.305Z,73.13
2023-02-14T07:34:34.225Z,71.78
2023-02-14T07:37:01.967Z,71.96
2023-02-14T07:39:29.760Z,71.92
2023-02-14T07:41:57.514Z,71.56
2023-02-14T07:44:25.310Z,71.83
2023-02-14T07:46:53.069Z,71.69
2023-02-14T07:49:20.873Z,72.22
2023-02-14T07:51:48.654Z,70.88
2023-02-14T07:54:16.430Z,72.16
2023-02-14T07:56:44.160Z,71.34
2023-02-14T07:59:11.901Z,71.90
2023-02-14T08:01:39.736Z,71.37
2023-02-14T08:04:07.631Z,71.06
2023-02-14T08:06:35.461Z,71.07
2023-02-14T08:09:03.326Z,72.06
2023-02-14T08:11:49.480Z,72.29
2023-02-14T08:14:17.347Z,72.24
2023-02-14T08:16:45.122Z,72.06
2023-02-14T08:19:12.883Z,72.28
2023-02-14T08:21:40.627Z,72.10
2023-02-14T08:24:08.382Z,73.10
2023-02-14T08:26:36.129Z,72.17
2023-02-14T08:29:03.878Z,73.36
2023-02-14T08:31:36.226Z,72.12
2023-02-14T08:34:04.544Z,72.28
2023-02-14T08:36:32.367Z,71.78
2023-02-14T08:39:00.159Z,72.23
2023-02-14T08:41:27.919Z,72.42
2023-02-14T08:43:55.766Z,71.22
2023-02-14T08:46:23.564Z,71.77
2023-02-14T08:48:51.466Z,71.12
2023-02-14T08:51:19.264Z,71.91
2023-02-14T08:53:47.325Z,72.36
2023-02-14T08:56:15.125Z,72.89
2023-02-14T08:58:43.253Z,71.06
2023-02-14T09:01:11.274Z,71.60
2023-02-14T09:03:39.172Z,72.20
2023-02-14T09:06:07.668Z,72.19
2023-02-14T09:08:38.288Z,72.03
2023-02-14T09:11:06.081Z,71.54
2023-02-14T09:13:33.857Z,71.77
2023-02-14T09:16:01.697Z,71.07
2023-02-14T09:18:29.538Z,71.48
2023-02-14T09:20:57.774Z,71.93
2023-02-14T09:23:25.758Z,72.39
2023-02-14T09:25:53.574Z,71.25
2023-02-14T09:28:21.360Z,70.41
2023-02-14T09:30:49.240Z,70.26
2023-02-14T09:33:17.056Z,71.13
2023-02-14T09:36:03.504Z,71.95
2023-02-14T09:38:31.312Z,72.52
2023-02-14T09:40:59.801Z,72.05
2023-02-14T09:43:31.698Z,71.20
2023-02-14T09:45:59.527Z,70.62
2023-02-14T09:48:28.274Z,71.38
2023-02-14T09:50:56.119Z,72.27
2023-02-14T09:53:23.877Z,72.72
2023-02-14T09:55:51.632Z,71.76
2023-02-14T09:58:20.141Z,71.70
2023-02-14T10:00:48.076Z,72.40
2023-02-14T10:03:15.888Z,72.48
2023-02-14T10:05:43.777Z,72.85
2023-02-14T10:08:11.603Z,72.03
2023-02-14T10:10:39.716Z,72.14
2023-02-14T10:13:07.679Z,72.04
2023-02-14T10:15:35.417Z,72.57
2023-02-14T10:18:03.347Z,71.94
2023-02-14T10:20:31.180Z,72.65
2023-02-14T10:22:58.976Z,72.47
2023-02-14T10:25:26.821Z,71.92
2023-02-14T10:27:54.574Z,71.86
2023-02-14T10:30:22.565Z,73.02
2023-02-14T10:32:50.442Z,71.95
2023-02-14T10:35:20.913Z,71.56
2023-02-14T10:37:49.310Z,71.99
2023-02-14T10:40:22.449Z,71.15
2023-02-14T10:42:50.423Z,70.97
2023-02-14T10:45:18.182Z,71.10
2023-02-14T10:47:47.871Z,71.95
2023-02-14T10:50:16.380Z,72.29
2023-02-14T10:52:44.160Z,71.91
2023-02-14T10:55:13.892Z,71.52
2023-02-14T10:57:43.425Z,72.56
2023-02-14T11:00:14.869Z,72.13
2023-02-14T11:02:42.628Z,72.59
2023-02-14T11:05:18.232Z,72.78
2023-02-14T11:07:45.986Z,71.24
2023-02-14T11:10:16.795Z,71.12
2023-02-14T11:13:04.308Z,71.81
2023-02-14T11:15:58.235Z,71.55
2023-02-14T11:18:46.350Z,71.64
2023-02-14T11:21:14.245Z,70.53
2023-02-14T11:23:42.855Z,71.17
2023-02-14T11:26:11.362Z,71.22
2023-02-14T11:28:47.887Z,72.48
2023-02-14T11:31:15.886Z,72.26
2023-02-14T11:33:43.691Z,72.19
2023-02-14T11:36:11.452Z,71.01
2023-02-14T11:38:42.111Z,72.21
2023-02-14T11:41:12.533Z,70.69
2023-02-14T11:43:40.853Z,72.35
2023-02-14T11:46:08.990Z,71.56
2023-02-14T11:48:39.011Z,70.53
2023-02-14T11:51:09.323Z,71.89
2023-02-14T11:53:37.192Z,72.09
2023-02-14T11:56:07.178Z,71.07
2023-02-14T11:58:34.941Z,71.86
2023-02-14T12:01:03.032Z,71.84
2023-02-14T12:03:32.365Z,72.50
2023-02-14T12:06:03.127Z,73.06
2023-02-14T12:08:30.909Z,73.25
2023-02-14T12:10:58.845Z,73.23
2023-02-14T12:13:27.172Z,73.17
2023-02-14T12:15:55.098Z,71.99
2023-02-14T12:18:23.055Z,72.41
2023-02-14T12:20:51.135Z,72.60
2023-02-14T12:23:18.942Z,72.19
2023-02-14T12:25:46.693Z,73.24
2023-02-14T12:28:14.527Z,72.15
2023-02-14T12:30:42.292Z,72.09
2023-02-14T12:33:10.060Z,72.49
2023-02-14T12:35:37.794Z,71.59
2023-02-14T12:38:05.550Z,72.58
2023-02-14T12:40:33.432Z,72.04
2023-02-14T12:43:01.297Z,72.23
2023-02-14T12:45:29.163Z,71.56
2023-02-14T12:47:56.940Z,72.01
2023-02-14T12:50:24.944Z,72.94
2023-02-14T12:52:52.700Z,71.89
2023-02-14T12:55:20.705Z,72.61
2023-02-14T12:57:48.500Z,72.40
2023-02-14T13:00:16.362Z,72.42
2023-02-14T13:02:44.252Z,72.24
2023-02-14T13:05:14.105Z,72.97
2023-02-14T13:07:41.865Z,73.71
2023-02-14T13:10:09.640Z,74.04
2023-02-14T13:12:37.611Z,73.26
2023-02-14T13:15:05.564Z,73.25
2023-02-14T13:17:35.991Z,73.96
2023-02-14T13:20:03.784Z,73.01
2023-02-14T13:22:32.036Z,73.16
2023-02-14T13:24:59.885Z,73.12
2023-02-14T13:27:27.833Z,74.38
2023-02-14T13:29:55.732Z,74.46
2023-02-14T13:32:23.541Z,74.50
2023-02-14T13:34:51.314Z,73.61
2023-02-14T13:37:19.126Z,73.91
2023-02-14T13:39:47.042Z,74.39
2023-02-14T13:42:15.425Z,74.31
2023-02-14T13:44:43.202Z,74.92
2023-02-14T13:47:10.961Z,74.02
2023-02-14T13:49:38.845Z,74.52
2023-02-14T13:52:06.661Z,74.47
2023-02-14T13:54:34.447Z,74.64
2023-02-14T13:57:02.463Z,74.12
2023-02-14T13:59:30.327Z,74.29
2023-02-14T14:01:58.254Z,74.88
2023-02-14T14:04:26.034Z,74.30
2023-02-14T14:06:53.763Z,74.94
2023-02-14T14:09:23.678Z,74.37
2023-02-14T14:11:52.096Z,74.88
2023-02-14T14:14:19.851Z,73.82
2023-02-14T14:16:47.641Z,74.10
2023-02-14T14:19:15.437Z,74.46
2023-02-14T14:21:44.954Z,74.66
2023-02-14T14:24:12.730Z,74.46
2023-02-14T14:26:40.757Z,75.08
2023-02-14T14:29:08.513Z,74.79
2023-02-14T14:31:36.371Z,74.94
2023-02-14T14:34:04.319Z,74.90
2023-02-14T14:36:32.126Z,74.89
2023-02-14T14:38:59.855Z,75.34
2023-02-14T14:41:27.903Z,74.42
2023-02-14T14:43:55.700Z,74.84
2023-02-14T14:46:23.472Z,74.45
2023-02-14T14:48:51.294Z,74.90
2023-02-14T14:51:21.073Z,74.87
2023-02-14T14:53:49.742Z,75.36
2023-02-14T14:56:17.490Z,75.28
2023-02-14T14:58:45.258Z,75.04
2023-02-14T15:01:14.098Z,75.48
2023-02-14T15:03:42.020Z,75.63
2023-02-14T15:06:09.837Z,75.23
2023-02-14T15:08:37.787Z,73.70
2023-02-14T15:11:07.188Z,73.97
2023-02-14T15:13:55.799Z,74.20
2023-02-14T15:16:23.622Z,74.84
2023-02-14T15:18:51.469Z,75.27
2023-02-14T15:21:19.279Z,74.78
2023-02-14T15:23:47.072Z,74.32
2023-02-14T15:26:14.831Z,73.99
2023-02-14T15:28:42.577Z,74.46
2023-02-14T15:31:10.570Z,75.01
2023-02-14T15:33:38.412Z,74.92
2023-02-14T15:36:06.159Z,75.36
2023-02-14T15:38:34.846Z,75.07
2023-02-14T15:41:02.843Z,74.80
2023-02-14T15:43:31.850Z,75.26
2023-02-14T15:45:59.682Z,75.14
2023-02-14T15:48:27.493Z,74.79
2023-02-14T15:50:55.254Z,75.10
2023-02-14T15:53:23.005Z,75.27
2023-02-14T15:55:53.814Z,75.34
2023-02-14T15:58:21.677Z,75.94
2023-02-14T16:00:49.453Z,75.71
2023-02-14T16:03:17.207Z,75.69
2023-02-14T16:05:44.955Z,75.50
2023-02-14T16:08:13.596Z,74.97
2023-02-14T16:10:41.411Z,75.23
2023-02-14T16:13:10.595Z,75.19
2023-02-14T16:15:38.685Z,75.42
2023-02-14T16:18:08.280Z,75.67
2023-02-14T16:20:36.188Z,75.46
2023-02-14T16:23:04.009Z,74.95
2023-02-14T16:25:31.885Z,75.64
2023-02-14T16:27:59.654Z,75.65
2023-02-14T16:30:27.434Z,75.63
2023-02-14T16:32:58.082Z,76.28
2023-02-14T16:35:25.861Z,75.91
2023-02-14T16:37:53.779Z,75.96
2023-02-14T16:40:21.494Z,76.47
2023-02-14T16:42:49.237Z,76.42
2023-02-14T16:45:17.393Z,75.99
2023-02-14T16:47:45.160Z,76.17
2023-02-14T16:50:13.323Z,76.07
2023-02-14T16:52:41.285Z,75.90
2023-02-14T16:55:09.032Z,76.13
2023-02-14T16:57:36.836Z,76.71
2023-02-14T17:00:04.712Z,76.45
2023-02-14T17:02:32.543Z,76.67
2023-02-14T17:05:00.444Z,76.38
2023-02-14T17:07:28.192Z,75.74
2023-02-14T17:09:55.980Z,76.51
2023-02-14T17:12:23.719Z,75.71
2023-02-14T17:14:51.842Z,75.62
2023-02-14T17:17:19.655Z,75.58
2023-02-14T17:19:47.510Z,75.62
2023-02-14T17:22:15.330Z,75.55
2023-02-14T17:24:45.933Z,75.88
2023-02-14T17:27:13.717Z,75.34
2023-02-14T17:29:41.489Z,75.67
2023-02-14T17:32:09.316Z,76.31
2023-02-14T17:34:37.418Z,76.45
2023-02-14T17:37:05.241Z,76.32
2023-02-14T17:39:33.087Z,76.21
2023-02-14T17:42:00.851Z,76.28
2023-02-14T17:44:30.621Z,75.68
2023-02-14T17:46:58.963Z,76.68
2023-02-14T17:49:26.776Z,76.67
2023-02-14T17:51:54.691Z,77.08
2023-02-14T17:54:22.451Z,76.75
2023-02-14T17:56:50.261Z,76.44
2023-02-14T17:59:18.093Z,76.72
2023-02-14T18:01:45.865Z,77.23
2023-02-14T18:04:13.774Z,76.08
2023-02-14T18:06:41.777Z,76.11
2023-02-14T18:09:09.541Z,76.80
2023-02-14T18:11:37.300Z,77.00
2023-02-14T18:14:05.560Z,76.38
2023-02-14T18:16:34.162Z,76.81
2023-02-14T18:19:02.035Z,76.79
2023-02-14T18:21:30.603Z,76.32
2023-02-14T18:24:00.687Z,76.46
2023-02-14T18:26:28.535Z,76.60
2023-02-14T18:28:56.401Z,77.10
2023-02-14T18:31:24.208Z,77.24
2023-02-14T18:33:52.165Z,76.50
2023-02-14T18:36:20.005Z,76.73
2023-02-14T18:38:47.830Z,76.41
2023-02-14T18:41:15.610Z,77.00
2023-02-14T18:43:43.485Z,75.93
2023-02-14T18:46:11.264Z,76.83
2023-02-14T18:48:39.037Z,76.33
2023-02-14T18:51:06.920Z,77.02
2023-02-14T18:53:34.688Z,76.35
2023-02-14T18:56:02.650Z,76.42
2023-02-14T18:58:30.434Z,76.73
2023-02-14T19:00:59.111Z,76.42
2023-02-14T19:03:27.080Z,77.19
2023-02-14T19:05:54.953Z,76.67
2023-02-14T19:08:22.704Z,76.89
2023-02-14T19:10:50.488Z,77.15
2023-02-14T19:13:20.528Z,76.55
2023-02-14T19:15:48.668Z,76.64
2023-02-14T19:18:16.516Z,75.99
2023-02-14T19:20:44.275Z,76.79
2023-02-14T19:23:12.058Z,75.55
2023-02-14T19:25:39.881Z,76.27
2023-02-14T19:28:12.410Z,76.57
2023-02-14T19:30:40.409Z,76.11
2023-02-14T19:33:08.181Z,76.78
2023-02-14T19:35:36.756Z,76.34
2023-02-14T19:38:04.607Z,76.63
2023-02-14T19:40:32.354Z,77.06
2023-02-14T19:43:00.137Z,76.44
2023-02-14T19:45:33.287Z,76.07
2023-02-14T19:48:02.642Z,76.26
2023-02-14T19:50:30.904Z,76.23
2023-02-14T19:52:59.601Z,76.54
2023-02-14T19:55:28.656Z,76.30
2023-02-14T19:57:56.760Z,76.79
2023-02-14T20:00:25.376Z,76.28
2023-02-14T20:02:53.171Z,76.25
2023-02-14T20:05:20.980Z,76.88
2023-02-14T20:07:55.405Z,76.47
2023-02-14T20:10:23.224Z,76.41
2023-02-14T20:12:51.092Z,76.46
2023-02-14T20:15:20.519Z,76.75
2023-02-14T20:17:48.308Z,77.21
2023-02-14T20:20:17.580Z,76.74
2023-02-14T20:22:45.590Z,77.14
2023-02-14T20:25:13.659Z,76.53
2023-02-14T20:27:41.467Z,77.22
2023-02-14T20:30:10.006Z,76.62
2023-02-14T20:32:38.202Z,77.35
2023-02-14T20:35:06.004Z,77.43
2023-02-14T20:37:33.780Z,76.65
2023-02-14T20:40:01.535Z,77.46
2023-02-14T20:42:29.288Z,77.35
2023-02-14T20:44:57.115Z,77.41
2023-02-14T20:47:24.938Z,77.00
2023-02-14T20:49:52.699Z,77.61
2023-02-14T20:52:20.525Z,77.63
2023-02-14T20:54:48.376Z,77.64
2023-02-14T20:57:16.193Z,78.09
2023-02-14T20:59:45.814Z,77.76
2023-02-14T21:02:13.629Z,77.42
2023-02-14T21:04:41.479Z,77.70
2023-02-14T21:07:11.213Z,77.43
2023-02-14T21:09:39.427Z,77.89
2023-02-14T21:12:07.561Z,77.15
2023-02-14T21:14:35.401Z,77.50
2023-02-14T21:17:05.250Z,77.65
2023-02-14T21:19:33.361Z,76.63
2023-02-14T21:22:01.145Z,76.96
2023-02-14T21:24:29.841Z,76.56
2023-02-14T21:26:57.620Z,77.17
2023-02-14T21:29:25.387Z,77.13
2023-02-14T21:31:53.348Z,76.93
2023-02-14T21:34:21.465Z,76.55
2023-02-14T21:36:49.370Z,76.66
2023-02-14T21:39:17.228Z,76.34
2023-02-14T21:41:45.175Z,77.24
2023-02-14T21:44:32.785Z,76.75
2023-02-14T21:47:00.533Z,76.71
2023-02-14T21:49:46.947Z,76.85
2023-02-14T21:52:14.749Z,76.92
2023-02-14T21:54:42.532Z,77.49
2023-02-14T21:57:10.313Z,77.30
2023-02-14T21:59:39.366Z,77.26
2023-02-14T22:02:07.139Z,76.71
2023-02-14T22:04:36.437Z,77.78
2023-02-14T22:07:04.255Z,77.30
2023-02-14T22:09:32.055Z,77.23
2023-02-14T22:11:59.880Z,77.70
2023-02-14T22:14:30.170Z,77.18
2023-02-14T22:16:57.954Z,77.64
2023-02-14T22:19:25.991Z,77.47
2023-02-14T22:21:53.767Z,76.97
2023-02-14T22:24:21.516Z,76.97
2023-02-14T22:26:49.342Z,77.05
2023-02-14T22:29:17.101Z,77.34
2023-02-14T22:31:45.139Z,76.77
2023-02-14T22:34:13.132Z,77.05
2023-02-14T22:36:40.963Z,77.76
2023-02-14T22:39:08.740Z,76.91
2023-02-14T22:41:38.686Z,77.39
2023-02-14T22:44:06.828Z,77.36
2023-02-14T22:46:34.672Z,77.71
2023-02-14T22:49:02.573Z,77.96
2023-02-14T22:51:30.362Z,77.44
2023-02-14T22:53:58.167Z,77.41
2023-02-14T22:56:26.129Z,77.24
2023-02-14T22:58:54.136Z,77.48
2023-02-14T23:01:21.926Z,77.81
2023-02-14T23:03:49.739Z,76.74
2023-02-14T23:06:17.663Z,77.25
2023-02-14T23:08:45.501Z,77.17
2023-02-14T23:11:13.277Z,77.30
2023-02-14T23:13:59.469Z,77.55
2023-02-14T23:16:45.748Z,77.21
2023-02-14T23:19:31.633Z,77.34
2023-02-14T23:21:59.552Z,77.43
2023-02-14T23:24:27.600Z,77.57
2023-02-14T23:26:55.832Z,76.90
2023-02-14T23:29:23.678Z,77.20
2023-02-14T23:31:51.584Z,77.31
2023-02-14T23:34:19.418Z,77.42
2023-02-14T23:36:47.250Z,77.72
2023-02-14T23:39:14.994Z,76.84
2023-02-14T23:41:48.727Z,77.51
2023-02-14T23:44:16.669Z,77.36
2023-02-14T23:46:44.467Z,77.51
2023-02-14T23:49:12.249Z,77.32
2023-02-14T23:51:40.149Z,77.91
2023-02-14T23:54:07.932Z,78.04
2023-02-14T23:56:35.772Z,77.92
2023-02-14T23:59:03.575Z,77.80
